Manning, SC (29102)

2:55 PM EDT on September 04, 2015 (GMT -0400)
Santee Cooper Regional | | Change Station
CLOSE
Current Station
Airport
Location: Manning,
Elevation: 105 ft
Nearby Weather Stations

Elev 105 ft 33.59 °N, 80.21 °W | Updated 33 seconds ago

Partly Cloudy
Partly Cloudy
93 °F
Feels Like 94 °F
N
5
Wind Variable Wind from NNE

Today
High -- | Low -- °F
--% Chance of Precip.
Yesterday
High -- | Low -- °F
Precip. -- in
6:56 AM 7:42 PM
Waning Gibbous, 57% visible
Pressure 29.95 in
Visibility 7.0 miles
Clouds Scattered Clouds 6000 ft
Heat Index 94 °F
Dew Point 63 °F
Humidity 36%
Rainfall 0.00 in
Snow Depth Not available.
UV 7 out of 12
Pollen 8.30 out of 12
Air Quality Not available.
Flu Activity Not available.
METAR KMNI 041855Z 02004KT 7SM SCT060 34/17 A2995 RMK AO2 PWINO
Pressure 29.95 in
Visibility 7.0 miles
Clouds Scattered Clouds 6000 ft
Heat Index 94 °F
Dew Point 63 °F
Humidity 36%
Rainfall 0.00 in
Snow Depth Not available.
UV 7 out of 12
Pollen 8.30 out of 12
Air Quality Not available.
Flu Activity Not available.
METAR KMNI 041855Z 02004KT 7SM SCT060 34/17 A2995 RMK AO2 PWINO

10-Day Weather Forecast

×

Almanac

Astronomy

Sep. 04, 2015 Rise Set
Actual Time
Civil Twilight
Nautical Twilight
Astronomical Twilight
Moon
Length of Visible Light
Length of Day
Tomorrow will be .
, % of the Moon is Illuminated

Today's Extremes

State Highs State Lows

Community

WunderPhotos

Upload Photos

1,852,262 photos uploaded!

WunderBlogs® & News

Nearby

Air Quality

  Air Quality AQ Index Pollutant
Not available.

Snow Depth

Station Depth Elevation

Earthquake Activity

City Distance Mag. Time & Date
Minimum magnitude displayed is 2.5.

Coastal Water Temperatures

Place Temperature

Stations

Nearby Weather Stations

Station Location Temp. Windchill Dew Point Humidity Wind Precip. Elev Updated Type